sensor_id;sensor_type;location;lat;lon;timestamp;P1;durP1;ratioP1;P2;durP2;ratioP2
48925;SDS011;39838;59.938;30.642;2023-02-20T00:01:25;13.23;;;7.10;;
48925;SDS011;39838;59.938;30.642;2023-02-20T00:03:54;12.25;;;7.00;;
48925;SDS011;39838;59.938;30.642;2023-02-20T00:06:21;13.55;;;7.45;;
48925;SDS011;39838;59.938;30.642;2023-02-20T00:08:48;15.55;;;7.10;;
48925;SDS011;39838;59.938;30.642;2023-02-20T00:11:16;12.68;;;6.95;;
48925;SDS011;39838;59.938;30.642;2023-02-20T00:13:44;12.05;;;6.57;;
48925;SDS011;39838;59.938;30.642;2023-02-20T00:16:11;11.35;;;6.30;;
48925;SDS011;39838;59.938;30.642;2023-02-20T00:18:39;11.32;;;6.95;;
48925;SDS011;39838;59.938;30.642;2023-02-20T00:21:07;15.25;;;7.20;;
48925;SDS011;39838;59.938;30.642;2023-02-20T00:23:34;13.35;;;7.18;;
48925;SDS011;39838;59.938;30.642;2023-02-20T00:26:02;12.55;;;6.97;;
48925;SDS011;39838;59.938;30.642;2023-02-20T00:28:29;15.80;;;7.00;;
48925;SDS011;39838;59.938;30.642;2023-02-20T00:30:56;12.80;;;6.75;;
48925;SDS011;39838;59.938;30.642;2023-02-20T00:33:23;11.80;;;6.82;;
48925;SDS011;39838;59.938;30.642;2023-02-20T00:35:51;11.55;;;6.78;;
48925;SDS011;39838;59.938;30.642;2023-02-20T00:38:19;11.82;;;6.50;;
48925;SDS011;39838;59.938;30.642;2023-02-20T00:40:46;12.25;;;6.85;;
48925;SDS011;39838;59.938;30.642;2023-02-20T00:43:13;13.27;;;6.88;;
48925;SDS011;39838;59.938;30.642;2023-02-20T00:45:40;16.98;;;7.70;;
48925;SDS011;39838;59.938;30.642;2023-02-20T00:48:07;15.82;;;7.35;;
48925;SDS011;39838;59.938;30.642;2023-02-20T00:50:34;15.68;;;7.40;;
48925;SDS011;39838;59.938;30.642;2023-02-20T00:53:02;13.55;;;6.93;;
48925;SDS011;39838;59.938;30.642;2023-02-20T00:55:30;13.18;;;6.75;;
48925;SDS011;39838;59.938;30.642;2023-02-20T00:57:57;14.35;;;7.07;;
48925;SDS011;39838;59.938;30.642;2023-02-20T01:00:26;12.63;;;6.85;;
48925;SDS011;39838;59.938;30.642;2023-02-20T01:02:54;14.20;;;7.07;;
48925;SDS011;39838;59.938;30.642;2023-02-20T01:05:22;12.80;;;7.00;;
48925;SDS011;39838;59.938;30.642;2023-02-20T01:07:49;12.30;;;6.72;;
48925;SDS011;39838;59.938;30.642;2023-02-20T01:10:16;12.05;;;6.85;;
48925;SDS011;39838;59.938;30.642;2023-02-20T01:12:45;13.70;;;6.82;;
48925;SDS011;39838;59.938;30.642;2023-02-20T01:15:12;13.25;;;7.57;;
48925;SDS011;39838;59.938;30.642;2023-02-20T01:17:40;12.80;;;6.63;;
48925;SDS011;39838;59.938;30.642;2023-02-20T01:20:07;15.57;;;7.70;;
48925;SDS011;39838;59.938;30.642;2023-02-20T01:22:36;21.58;;;7.35;;
48925;SDS011;39838;59.938;30.642;2023-02-20T01:25:03;12.93;;;7.00;;
48925;SDS011;39838;59.938;30.642;2023-02-20T01:27:31;13.25;;;6.78;;
48925;SDS011;39838;59.938;30.642;2023-02-20T01:30:00;11.18;;;6.25;;
48925;SDS011;39838;59.938;30.642;2023-02-20T01:32:29;14.68;;;7.20;;
48925;SDS011;39838;59.938;30.642;2023-02-20T01:34:57;13.05;;;6.57;;
48925;SDS011;39838;59.938;30.642;2023-02-20T01:37:24;13.65;;;6.70;;
48925;SDS011;39838;59.938;30.642;2023-02-20T01:39:51;12.85;;;6.93;;
48925;SDS011;39838;59.938;30.642;2023-02-20T01:42:19;13.70;;;6.43;;
48925;SDS011;39838;59.938;30.642;2023-02-20T01:44:48;12.27;;;6.78;;
48925;SDS011;39838;59.938;30.642;2023-02-20T01:47:17;13.15;;;6.47;;
48925;SDS011;39838;59.938;30.642;2023-02-20T01:49:47;13.90;;;7.32;;
48925;SDS011;39838;59.938;30.642;2023-02-20T01:52:18;13.05;;;7.20;;
48925;SDS011;39838;59.938;30.642;2023-02-20T01:54:50;13.10;;;6.93;;
48925;SDS011;39838;59.938;30.642;2023-02-20T01:57:21;12.85;;;7.25;;
48925;SDS011;39838;59.938;30.642;2023-02-20T01:59:50;13.98;;;7.72;;
48925;SDS011;39838;59.938;30.642;2023-02-20T02:02:21;15.02;;;7.75;;
48925;SDS011;39838;59.938;30.642;2023-02-20T02:04:49;15.55;;;7.50;;
48925;SDS011;39838;59.938;30.642;2023-02-20T02:07:17;15.32;;;7.63;;
48925;SDS011;39838;59.938;30.642;2023-02-20T02:09:46;13.90;;;7.65;;
48925;SDS011;39838;59.938;30.642;2023-02-20T02:12:17;18.52;;;8.05;;
48925;SDS011;39838;59.938;30.642;2023-02-20T02:14:44;17.52;;;8.40;;
48925;SDS011;39838;59.938;30.642;2023-02-20T02:17:21;17.13;;;8.55;;
48925;SDS011;39838;59.938;30.642;2023-02-20T02:20:15;14.63;;;7.75;;
48925;SDS011;39838;59.938;30.642;2023-02-20T02:23:18;13.18;;;7.00;;
48925;SDS011;39838;59.938;30.642;2023-02-20T02:26:25;14.50;;;7.85;;
48925;SDS011;39838;59.938;30.642;2023-02-20T02:32:20;13.73;;;7.70;;
48925;SDS011;39838;59.938;30.642;2023-02-20T02:35:17;14.52;;;7.88;;
48925;SDS011;39838;59.938;30.642;2023-02-20T02:38:01;14.27;;;7.45;;
48925;SDS011;39838;59.938;30.642;2023-02-20T02:40:37;13.90;;;7.60;;
48925;SDS011;39838;59.938;30.642;2023-02-20T02:43:10;13.82;;;7.45;;
48925;SDS011;39838;59.938;30.642;2023-02-20T02:45:43;18.60;;;7.88;;
48925;SDS011;39838;59.938;30.642;2023-02-20T02:48:18;15.57;;;7.45;;
48925;SDS011;39838;59.938;30.642;2023-02-20T02:50:52;15.68;;;7.85;;
48925;SDS011;39838;59.938;30.642;2023-02-20T02:53:25;15.05;;;8.00;;
48925;SDS011;39838;59.938;30.642;2023-02-20T02:55:53;17.63;;;8.10;;
48925;SDS011;39838;59.938;30.642;2023-02-20T02:58:20;18.75;;;7.63;;
48925;SDS011;39838;59.938;30.642;2023-02-20T03:00:48;17.20;;;7.43;;
48925;SDS011;39838;59.938;30.642;2023-02-20T03:03:20;16.90;;;7.88;;
48925;SDS011;39838;59.938;30.642;2023-02-20T03:05:53;19.45;;;8.50;;
48925;SDS011;39838;59.938;30.642;2023-02-20T03:08:27;17.70;;;8.52;;
48925;SDS011;39838;59.938;30.642;2023-02-20T03:10:59;15.93;;;8.27;;
48925;SDS011;39838;59.938;30.642;2023-02-20T03:13:30;15.40;;;7.88;;
48925;SDS011;39838;59.938;30.642;2023-02-20T03:16:20;16.20;;;7.85;;
48925;SDS011;39838;59.938;30.642;2023-02-20T03:18:52;18.95;;;8.23;;
48925;SDS011;39838;59.938;30.642;2023-02-20T03:21:24;18.48;;;8.88;;
48925;SDS011;39838;59.938;30.642;2023-02-20T03:23:56;14.13;;;7.22;;
48925;SDS011;39838;59.938;30.642;2023-02-20T03:26:27;14.75;;;7.68;;
48925;SDS011;39838;59.938;30.642;2023-02-20T03:29:00;16.92;;;7.97;;
48925;SDS011;39838;59.938;30.642;2023-02-20T03:31:32;16.98;;;7.95;;
48925;SDS011;39838;59.938;30.642;2023-02-20T03:34:07;15.32;;;8.25;;
48925;SDS011;39838;59.938;30.642;2023-02-20T03:36:56;14.35;;;7.82;;
48925;SDS011;39838;59.938;30.642;2023-02-20T03:39:49;14.40;;;8.40;;
48925;SDS011;39838;59.938;30.642;2023-02-20T03:42:38;18.05;;;8.38;;
48925;SDS011;39838;59.938;30.642;2023-02-20T03:45:28;17.67;;;8.15;;
48925;SDS011;39838;59.938;30.642;2023-02-20T03:47:58;17.90;;;8.52;;
48925;SDS011;39838;59.938;30.642;2023-02-20T03:50:30;16.98;;;7.95;;
48925;SDS011;39838;59.938;30.642;2023-02-20T03:53:14;14.02;;;7.85;;
48925;SDS011;39838;59.938;30.642;2023-02-20T03:55:43;17.17;;;8.77;;
48925;SDS011;39838;59.938;30.642;2023-02-20T03:58:13;18.33;;;8.38;;
48925;SDS011;39838;59.938;30.642;2023-02-20T04:00:43;14.75;;;7.65;;
48925;SDS011;39838;59.938;30.642;2023-02-20T04:03:14;17.50;;;8.18;;
48925;SDS011;39838;59.938;30.642;2023-02-20T04:05:44;16.80;;;8.43;;
48925;SDS011;39838;59.938;30.642;2023-02-20T04:08:15;17.85;;;8.75;;
48925;SDS011;39838;59.938;30.642;2023-02-20T04:10:47;15.40;;;8.38;;
48925;SDS011;39838;59.938;30.642;2023-02-20T04:13:19;16.17;;;8.25;;
48925;SDS011;39838;59.938;30.642;2023-02-20T04:15:46;19.33;;;8.52;;
48925;SDS011;39838;59.938;30.642;2023-02-20T04:18:15;13.43;;;8.02;;
48925;SDS011;39838;59.938;30.642;2023-02-20T04:20:44;18.20;;;9.32;;
48925;SDS011;39838;59.938;30.642;2023-02-20T04:23:14;16.58;;;8.75;;
48925;SDS011;39838;59.938;30.642;2023-02-20T04:25:44;16.92;;;8.55;;
48925;SDS011;39838;59.938;30.642;2023-02-20T04:28:17;17.02;;;8.90;;
48925;SDS011;39838;59.938;30.642;2023-02-20T04:30:45;20.58;;;8.93;;
48925;SDS011;39838;59.938;30.642;2023-02-20T04:33:13;17.30;;;9.05;;
48925;SDS011;39838;59.938;30.642;2023-02-20T04:35:41;20.38;;;11.00;;
48925;SDS011;39838;59.938;30.642;2023-02-20T04:38:09;20.25;;;9.88;;
48925;SDS011;39838;59.938;30.642;2023-02-20T04:40:36;17.90;;;8.65;;
48925;SDS011;39838;59.938;30.642;2023-02-20T04:43:05;18.77;;;8.98;;
48925;SDS011;39838;59.938;30.642;2023-02-20T04:45:32;18.77;;;9.05;;
48925;SDS011;39838;59.938;30.642;2023-02-20T04:48:00;20.52;;;9.10;;
48925;SDS011;39838;59.938;30.642;2023-02-20T04:50:28;21.33;;;9.05;;
48925;SDS011;39838;59.938;30.642;2023-02-20T04:52:56;19.65;;;9.50;;
48925;SDS011;39838;59.938;30.642;2023-02-20T04:55:24;17.33;;;9.10;;
48925;SDS011;39838;59.938;30.642;2023-02-20T04:57:51;19.23;;;9.35;;
48925;SDS011;39838;59.938;30.642;2023-02-20T05:00:22;18.38;;;8.25;;
48925;SDS011;39838;59.938;30.642;2023-02-20T05:02:50;21.75;;;9.65;;
48925;SDS011;39838;59.938;30.642;2023-02-20T05:05:18;19.13;;;8.93;;
48925;SDS011;39838;59.938;30.642;2023-02-20T05:07:46;17.98;;;8.95;;
48925;SDS011;39838;59.938;30.642;2023-02-20T05:10:14;20.63;;;10.00;;
48925;SDS011;39838;59.938;30.642;2023-02-20T05:12:42;17.83;;;8.50;;
48925;SDS011;39838;59.938;30.642;2023-02-20T05:15:09;19.63;;;9.18;;
48925;SDS011;39838;59.938;30.642;2023-02-20T05:17:37;19.80;;;8.27;;
48925;SDS011;39838;59.938;30.642;2023-02-20T05:20:05;16.45;;;8.43;;
48925;SDS011;39838;59.938;30.642;2023-02-20T05:22:33;19.38;;;8.55;;
48925;SDS011;39838;59.938;30.642;2023-02-20T05:24:59;18.55;;;9.55;;
48925;SDS011;39838;59.938;30.642;2023-02-20T05:27:26;16.42;;;8.90;;
48925;SDS011;39838;59.938;30.642;2023-02-20T05:29:54;22.13;;;9.30;;
48925;SDS011;39838;59.938;30.642;2023-02-20T05:32:23;17.45;;;8.82;;
48925;SDS011;39838;59.938;30.642;2023-02-20T05:34:54;21.30;;;9.50;;
48925;SDS011;39838;59.938;30.642;2023-02-20T05:37:22;18.95;;;8.80;;
48925;SDS011;39838;59.938;30.642;2023-02-20T05:39:50;18.17;;;9.25;;
48925;SDS011;39838;59.938;30.642;2023-02-20T05:42:18;20.17;;;9.70;;
48925;SDS011;39838;59.938;30.642;2023-02-20T05:44:45;18.63;;;9.65;;
48925;SDS011;39838;59.938;30.642;2023-02-20T05:47:13;18.95;;;9.40;;
48925;SDS011;39838;59.938;30.642;2023-02-20T05:49:41;18.83;;;9.63;;
48925;SDS011;39838;59.938;30.642;2023-02-20T05:52:10;18.92;;;9.60;;
48925;SDS011;39838;59.938;30.642;2023-02-20T05:54:37;17.75;;;9.30;;
48925;SDS011;39838;59.938;30.642;2023-02-20T05:57:05;19.80;;;10.38;;
48925;SDS011;39838;59.938;30.642;2023-02-20T05:59:32;20.60;;;9.85;;
48925;SDS011;39838;59.938;30.642;2023-02-20T06:01:59;22.83;;;9.90;;
48925;SDS011;39838;59.938;30.642;2023-02-20T06:04:27;23.08;;;9.52;;
48925;SDS011;39838;59.938;30.642;2023-02-20T06:06:55;22.88;;;9.55;;
48925;SDS011;39838;59.938;30.642;2023-02-20T06:09:23;20.30;;;9.07;;
48925;SDS011;39838;59.938;30.642;2023-02-20T06:11:51;22.42;;;10.05;;
48925;SDS011;39838;59.938;30.642;2023-02-20T06:14:20;20.92;;;10.05;;
48925;SDS011;39838;59.938;30.642;2023-02-20T06:16:49;21.40;;;9.80;;
48925;SDS011;39838;59.938;30.642;2023-02-20T06:19:16;23.92;;;10.40;;
48925;SDS011;39838;59.938;30.642;2023-02-20T06:21:46;24.60;;;11.23;;
48925;SDS011;39838;59.938;30.642;2023-02-20T06:24:14;25.30;;;11.27;;
48925;SDS011;39838;59.938;30.642;2023-02-20T06:26:43;19.73;;;10.30;;
48925;SDS011;39838;59.938;30.642;2023-02-20T06:29:12;19.98;;;10.25;;
48925;SDS011;39838;59.938;30.642;2023-02-20T06:31:40;21.48;;;10.93;;
48925;SDS011;39838;59.938;30.642;2023-02-20T06:34:08;21.55;;;10.25;;
48925;SDS011;39838;59.938;30.642;2023-02-20T06:36:36;23.58;;;10.82;;
48925;SDS011;39838;59.938;30.642;2023-02-20T06:39:05;21.65;;;10.35;;
48925;SDS011;39838;59.938;30.642;2023-02-20T06:41:33;20.33;;;10.23;;
48925;SDS011;39838;59.938;30.642;2023-02-20T06:44:02;19.73;;;10.45;;
48925;SDS011;39838;59.938;30.642;2023-02-20T06:46:29;22.50;;;10.38;;
48925;SDS011;39838;59.938;30.642;2023-02-20T06:48:57;22.10;;;10.63;;
48925;SDS011;39838;59.938;30.642;2023-02-20T06:51:25;21.33;;;10.95;;
48925;SDS011;39838;59.938;30.642;2023-02-20T06:53:53;18.75;;;9.15;;
48925;SDS011;39838;59.938;30.642;2023-02-20T06:56:21;22.27;;;10.15;;
48925;SDS011;39838;59.938;30.642;2023-02-20T06:58:50;20.58;;;10.15;;
48925;SDS011;39838;59.938;30.642;2023-02-20T07:01:20;20.95;;;10.00;;
48925;SDS011;39838;59.938;30.642;2023-02-20T07:03:51;23.45;;;10.30;;
48925;SDS011;39838;59.938;30.642;2023-02-20T07:06:19;22.25;;;10.48;;
48925;SDS011;39838;59.938;30.642;2023-02-20T07:08:46;21.13;;;9.20;;
48925;SDS011;39838;59.938;30.642;2023-02-20T07:11:15;19.50;;;9.65;;
48925;SDS011;39838;59.938;30.642;2023-02-20T07:13:43;16.90;;;9.60;;
48925;SDS011;39838;59.938;30.642;2023-02-20T07:16:10;20.48;;;10.13;;
48925;SDS011;39838;59.938;30.642;2023-02-20T07:18:39;21.10;;;10.60;;
48925;SDS011;39838;59.938;30.642;2023-02-20T07:21:06;22.85;;;10.95;;
48925;SDS011;39838;59.938;30.642;2023-02-20T07:23:33;21.13;;;11.00;;
48925;SDS011;39838;59.938;30.642;2023-02-20T07:26:00;25.58;;;11.20;;
48925;SDS011;39838;59.938;30.642;2023-02-20T07:28:27;25.73;;;11.93;;
48925;SDS011;39838;59.938;30.642;2023-02-20T07:30:54;24.20;;;11.50;;
48925;SDS011;39838;59.938;30.642;2023-02-20T07:33:21;25.58;;;11.57;;
48925;SDS011;39838;59.938;30.642;2023-02-20T07:35:50;25.23;;;12.30;;
48925;SDS011;39838;59.938;30.642;2023-02-20T07:38:17;24.20;;;11.57;;
48925;SDS011;39838;59.938;30.642;2023-02-20T07:40:44;23.83;;;11.57;;
48925;SDS011;39838;59.938;30.642;2023-02-20T07:43:11;22.63;;;11.60;;
48925;SDS011;39838;59.938;30.642;2023-02-20T07:45:38;23.73;;;11.40;;
48925;SDS011;39838;59.938;30.642;2023-02-20T07:48:06;23.08;;;11.70;;
48925;SDS011;39838;59.938;30.642;2023-02-20T07:50:33;22.73;;;10.63;;
48925;SDS011;39838;59.938;30.642;2023-02-20T07:53:02;21.55;;;10.65;;
48925;SDS011;39838;59.938;30.642;2023-02-20T07:55:29;21.08;;;10.70;;
48925;SDS011;39838;59.938;30.642;2023-02-20T07:57:56;21.48;;;9.85;;
48925;SDS011;39838;59.938;30.642;2023-02-20T08:00:24;19.17;;;9.80;;
48925;SDS011;39838;59.938;30.642;2023-02-20T08:02:52;17.45;;;9.57;;
48925;SDS011;39838;59.938;30.642;2023-02-20T08:05:20;17.65;;;9.90;;
48925;SDS011;39838;59.938;30.642;2023-02-20T08:07:47;21.00;;;10.40;;
48925;SDS011;39838;59.938;30.642;2023-02-20T08:10:18;19.05;;;9.38;;
48925;SDS011;39838;59.938;30.642;2023-02-20T08:12:47;18.40;;;9.52;;
48925;SDS011;39838;59.938;30.642;2023-02-20T08:15:16;20.30;;;9.80;;
48925;SDS011;39838;59.938;30.642;2023-02-20T08:17:44;17.42;;;9.20;;
48925;SDS011;39838;59.938;30.642;2023-02-20T08:20:11;19.48;;;9.35;;
48925;SDS011;39838;59.938;30.642;2023-02-20T08:22:40;17.50;;;9.60;;
48925;SDS011;39838;59.938;30.642;2023-02-20T08:25:07;18.17;;;10.05;;
48925;SDS011;39838;59.938;30.642;2023-02-20T08:27:35;15.85;;;8.93;;
48925;SDS011;39838;59.938;30.642;2023-02-20T08:30:03;14.20;;;8.68;;
48925;SDS011;39838;59.938;30.642;2023-02-20T08:32:31;21.48;;;9.40;;
48925;SDS011;39838;59.938;30.642;2023-02-20T08:34:59;18.08;;;9.70;;
48925;SDS011;39838;59.938;30.642;2023-02-20T08:37:26;21.70;;;11.02;;
48925;SDS011;39838;59.938;30.642;2023-02-20T08:39:53;16.33;;;9.73;;
48925;SDS011;39838;59.938;30.642;2023-02-20T08:42:20;17.95;;;9.70;;
48925;SDS011;39838;59.938;30.642;2023-02-20T08:44:48;18.05;;;9.80;;
48925;SDS011;39838;59.938;30.642;2023-02-20T08:47:17;15.23;;;8.88;;
48925;SDS011;39838;59.938;30.642;2023-02-20T08:49:45;17.15;;;9.30;;
48925;SDS011;39838;59.938;30.642;2023-02-20T08:52:13;19.83;;;10.15;;
48925;SDS011;39838;59.938;30.642;2023-02-20T08:54:43;18.52;;;9.70;;
48925;SDS011;39838;59.938;30.642;2023-02-20T08:57:11;19.27;;;10.02;;
48925;SDS011;39838;59.938;30.642;2023-02-20T08:59:38;17.35;;;9.90;;
48925;SDS011;39838;59.938;30.642;2023-02-20T09:02:07;16.55;;;9.57;;
48925;SDS011;39838;59.938;30.642;2023-02-20T09:04:41;18.63;;;9.75;;
48925;SDS011;39838;59.938;30.642;2023-02-20T09:07:08;19.88;;;9.63;;
48925;SDS011;39838;59.938;30.642;2023-02-20T09:09:35;21.60;;;10.15;;
48925;SDS011;39838;59.938;30.642;2023-02-20T09:12:03;17.52;;;10.27;;
48925;SDS011;39838;59.938;30.642;2023-02-20T09:14:30;18.63;;;10.25;;
48925;SDS011;39838;59.938;30.642;2023-02-20T09:16:58;20.77;;;10.43;;
48925;SDS011;39838;59.938;30.642;2023-02-20T09:19:26;16.92;;;9.75;;
48925;SDS011;39838;59.938;30.642;2023-02-20T09:21:53;22.08;;;10.27;;
48925;SDS011;39838;59.938;30.642;2023-02-20T09:24:21;19.50;;;9.90;;
48925;SDS011;39838;59.938;30.642;2023-02-20T09:26:48;21.08;;;10.75;;
48925;SDS011;39838;59.938;30.642;2023-02-20T09:29:15;21.30;;;11.18;;
48925;SDS011;39838;59.938;30.642;2023-02-20T09:31:43;19.08;;;11.48;;
48925;SDS011;39838;59.938;30.642;2023-02-20T09:34:10;20.13;;;10.13;;
48925;SDS011;39838;59.938;30.642;2023-02-20T09:36:38;18.65;;;10.43;;
48925;SDS011;39838;59.938;30.642;2023-02-20T09:39:05;21.30;;;11.68;;
48925;SDS011;39838;59.938;30.642;2023-02-20T09:41:34;21.65;;;11.85;;
48925;SDS011;39838;59.938;30.642;2023-02-20T09:44:11;26.75;;;12.05;;
48925;SDS011;39838;59.938;30.642;2023-02-20T09:46:43;27.42;;;11.38;;
48925;SDS011;39838;59.938;30.642;2023-02-20T09:49:14;20.95;;;11.20;;
48925;SDS011;39838;59.938;30.642;2023-02-20T09:51:48;22.75;;;12.00;;
48925;SDS011;39838;59.938;30.642;2023-02-20T09:54:19;21.17;;;11.32;;
48925;SDS011;39838;59.938;30.642;2023-02-20T09:56:52;24.35;;;12.40;;
48925;SDS011;39838;59.938;30.642;2023-02-20T09:59:23;18.48;;;10.77;;
48925;SDS011;39838;59.938;30.642;2023-02-20T10:01:54;25.65;;;11.48;;
48925;SDS011;39838;59.938;30.642;2023-02-20T10:04:26;23.45;;;12.10;;
48925;SDS011;39838;59.938;30.642;2023-02-20T10:07:03;21.93;;;11.53;;
48925;SDS011;39838;59.938;30.642;2023-02-20T10:09:39;24.40;;;11.20;;
48925;SDS011;39838;59.938;30.642;2023-02-20T10:12:08;19.45;;;10.88;;
48925;SDS011;39838;59.938;30.642;2023-02-20T10:17:37;20.15;;;11.45;;
48925;SDS011;39838;59.938;30.642;2023-02-20T10:20:14;20.83;;;10.98;;
48925;SDS011;39838;59.938;30.642;2023-02-20T10:22:49;20.67;;;10.45;;
48925;SDS011;39838;59.938;30.642;2023-02-20T10:25:24;20.77;;;11.63;;
48925;SDS011;39838;59.938;30.642;2023-02-20T10:27:59;20.77;;;10.60;;
48925;SDS011;39838;59.938;30.642;2023-02-20T10:30:30;21.25;;;10.68;;
48925;SDS011;39838;59.938;30.642;2023-02-20T10:33:01;21.48;;;11.50;;
48925;SDS011;39838;59.938;30.642;2023-02-20T10:35:37;20.35;;;10.98;;
48925;SDS011;39838;59.938;30.642;2023-02-20T10:38:09;22.50;;;11.95;;
48925;SDS011;39838;59.938;30.642;2023-02-20T10:40:40;17.55;;;10.15;;
48925;SDS011;39838;59.938;30.642;2023-02-20T10:43:12;20.20;;;11.05;;
48925;SDS011;39838;59.938;30.642;2023-02-20T10:45:48;22.63;;;11.00;;
48925;SDS011;39838;59.938;30.642;2023-02-20T10:48:21;17.67;;;10.23;;
48925;SDS011;39838;59.938;30.642;2023-02-20T10:50:53;20.95;;;11.32;;
48925;SDS011;39838;59.938;30.642;2023-02-20T10:53:31;24.45;;;11.30;;
48925;SDS011;39838;59.938;30.642;2023-02-20T10:56:06;18.52;;;10.52;;
48925;SDS011;39838;59.938;30.642;2023-02-20T10:58:38;19.38;;;11.15;;
48925;SDS011;39838;59.938;30.642;2023-02-20T11:01:12;18.83;;;10.73;;
48925;SDS011;39838;59.938;30.642;2023-02-20T11:03:43;17.13;;;9.77;;
48925;SDS011;39838;59.938;30.642;2023-02-20T11:06:15;15.52;;;9.43;;
48925;SDS011;39838;59.938;30.642;2023-02-20T11:08:45;17.80;;;9.68;;
48925;SDS011;39838;59.938;30.642;2023-02-20T11:11:19;18.83;;;10.05;;
48925;SDS011;39838;59.938;30.642;2023-02-20T11:13:49;19.63;;;10.50;;
48925;SDS011;39838;59.938;30.642;2023-02-20T11:16:20;17.38;;;9.50;;
48925;SDS011;39838;59.938;30.642;2023-02-20T11:18:52;16.80;;;9.37;;
48925;SDS011;39838;59.938;30.642;2023-02-20T11:21:34;18.73;;;11.05;;
48925;SDS011;39838;59.938;30.642;2023-02-20T11:24:18;17.70;;;10.02;;
48925;SDS011;39838;59.938;30.642;2023-02-20T11:26:59;19.75;;;10.25;;
48925;SDS011;39838;59.938;30.642;2023-02-20T11:29:31;21.02;;;10.35;;
48925;SDS011;39838;59.938;30.642;2023-02-20T11:35:03;17.30;;;9.68;;
48925;SDS011;39838;59.938;30.642;2023-02-20T11:37:37;18.35;;;9.27;;
48925;SDS011;39838;59.938;30.642;2023-02-20T11:40:13;18.42;;;10.40;;
48925;SDS011;39838;59.938;30.642;2023-02-20T11:42:41;17.70;;;9.80;;
48925;SDS011;39838;59.938;30.642;2023-02-20T11:45:11;17.08;;;10.23;;
48925;SDS011;39838;59.938;30.642;2023-02-20T11:47:41;19.30;;;10.52;;
48925;SDS011;39838;59.938;30.642;2023-02-20T11:50:13;17.08;;;10.73;;
48925;SDS011;39838;59.938;30.642;2023-02-20T11:55:26;19.65;;;11.55;;
48925;SDS011;39838;59.938;30.642;2023-02-20T11:57:54;20.52;;;11.13;;
48925;SDS011;39838;59.938;30.642;2023-02-20T12:00:23;20.30;;;11.32;;
48925;SDS011;39838;59.938;30.642;2023-02-20T12:02:53;20.08;;;11.65;;
48925;SDS011;39838;59.938;30.642;2023-02-20T12:05:21;17.98;;;10.00;;
48925;SDS011;39838;59.938;30.642;2023-02-20T12:08:17;19.48;;;9.88;;
48925;SDS011;39838;59.938;30.642;2023-02-20T12:10:51;16.88;;;9.43;;
48925;SDS011;39838;59.938;30.642;2023-02-20T12:13:20;18.70;;;11.65;;
48925;SDS011;39838;59.938;30.642;2023-02-20T12:15:50;17.35;;;9.98;;
48925;SDS011;39838;59.938;30.642;2023-02-20T12:18:31;15.77;;;9.13;;
48925;SDS011;39838;59.938;30.642;2023-02-20T12:21:12;19.45;;;10.82;;
48925;SDS011;39838;59.938;30.642;2023-02-20T12:23:49;17.17;;;9.35;;
48925;SDS011;39838;59.938;30.642;2023-02-20T12:26:33;19.60;;;11.23;;
48925;SDS011;39838;59.938;30.642;2023-02-20T12:29:21;19.38;;;10.00;;
48925;SDS011;39838;59.938;30.642;2023-02-20T12:32:03;17.27;;;9.48;;
48925;SDS011;39838;59.938;30.642;2023-02-20T12:34:48;21.08;;;10.43;;
48925;SDS011;39838;59.938;30.642;2023-02-20T12:37:32;17.58;;;10.27;;
48925;SDS011;39838;59.938;30.642;2023-02-20T12:40:11;19.60;;;10.65;;
48925;SDS011;39838;59.938;30.642;2023-02-20T12:42:55;17.83;;;10.13;;
48925;SDS011;39838;59.938;30.642;2023-02-20T12:45:29;19.98;;;10.35;;
48925;SDS011;39838;59.938;30.642;2023-02-20T12:48:10;19.50;;;10.68;;
48925;SDS011;39838;59.938;30.642;2023-02-20T12:50:58;17.95;;;10.02;;
48925;SDS011;39838;59.938;30.642;2023-02-20T12:56:15;17.42;;;9.85;;
48925;SDS011;39838;59.938;30.642;2023-02-20T12:58:52;17.88;;;9.13;;
48925;SDS011;39838;59.938;30.642;2023-02-20T13:01:25;17.80;;;9.60;;
48925;SDS011;39838;59.938;30.642;2023-02-20T13:03:56;17.45;;;9.40;;
48925;SDS011;39838;59.938;30.642;2023-02-20T13:06:31;17.55;;;9.55;;
48925;SDS011;39838;59.938;30.642;2023-02-20T13:09:05;15.10;;;8.98;;
48925;SDS011;39838;59.938;30.642;2023-02-20T13:11:42;17.58;;;9.30;;
48925;SDS011;39838;59.938;30.642;2023-02-20T13:14:18;15.23;;;8.25;;
48925;SDS011;39838;59.938;30.642;2023-02-20T13:16:57;16.95;;;9.57;;
48925;SDS011;39838;59.938;30.642;2023-02-20T13:19:35;16.02;;;8.65;;
48925;SDS011;39838;59.938;30.642;2023-02-20T13:22:06;15.98;;;9.52;;
48925;SDS011;39838;59.938;30.642;2023-02-20T13:24:35;15.93;;;9.10;;
48925;SDS011;39838;59.938;30.642;2023-02-20T13:27:03;19.42;;;9.35;;
48925;SDS011;39838;59.938;30.642;2023-02-20T13:29:35;18.38;;;9.25;;
48925;SDS011;39838;59.938;30.642;2023-02-20T13:34:50;19.00;;;10.57;;
48925;SDS011;39838;59.938;30.642;2023-02-20T13:46:16;22.65;;;10.15;;
48925;SDS011;39838;59.938;30.642;2023-02-20T13:48:50;19.90;;;10.23;;
48925;SDS011;39838;59.938;30.642;2023-02-20T13:51:35;18.50;;;9.95;;
48925;SDS011;39838;59.938;30.642;2023-02-20T13:54:11;18.73;;;9.75;;
48925;SDS011;39838;59.938;30.642;2023-02-20T13:56:45;20.48;;;9.95;;
48925;SDS011;39838;59.938;30.642;2023-02-20T13:59:15;20.92;;;9.57;;
48925;SDS011;39838;59.938;30.642;2023-02-20T14:02:11;18.05;;;9.75;;
48925;SDS011;39838;59.938;30.642;2023-02-20T14:04:54;18.27;;;9.88;;
48925;SDS011;39838;59.938;30.642;2023-02-20T14:07:30;19.33;;;10.27;;
48925;SDS011;39838;59.938;30.642;2023-02-20T14:09:59;18.45;;;9.55;;
48925;SDS011;39838;59.938;30.642;2023-02-20T14:12:29;20.20;;;11.35;;
48925;SDS011;39838;59.938;30.642;2023-02-20T14:14:56;24.83;;;10.02;;
48925;SDS011;39838;59.938;30.642;2023-02-20T14:17:25;19.67;;;11.02;;
48925;SDS011;39838;59.938;30.642;2023-02-20T14:19:54;20.45;;;10.90;;
48925;SDS011;39838;59.938;30.642;2023-02-20T14:22:25;19.33;;;10.63;;
48925;SDS011;39838;59.938;30.642;2023-02-20T14:27:47;19.65;;;10.63;;
48925;SDS011;39838;59.938;30.642;2023-02-20T14:30:16;22.35;;;10.77;;
48925;SDS011;39838;59.938;30.642;2023-02-20T14:32:47;19.33;;;10.35;;
48925;SDS011;39838;59.938;30.642;2023-02-20T14:38:13;20.75;;;10.63;;
48925;SDS011;39838;59.938;30.642;2023-02-20T14:40:50;21.60;;;11.57;;
48925;SDS011;39838;59.938;30.642;2023-02-20T14:43:18;18.38;;;10.63;;
48925;SDS011;39838;59.938;30.642;2023-02-20T14:45:56;18.75;;;10.35;;
48925;SDS011;39838;59.938;30.642;2023-02-20T14:48:27;17.92;;;10.07;;
48925;SDS011;39838;59.938;30.642;2023-02-20T14:51:03;18.77;;;9.93;;
48925;SDS011;39838;59.938;30.642;2023-02-20T14:53:36;16.50;;;9.40;;
48925;SDS011;39838;59.938;30.642;2023-02-20T14:56:14;18.05;;;9.40;;
48925;SDS011;39838;59.938;30.642;2023-02-20T14:58:43;16.90;;;9.77;;
48925;SDS011;39838;59.938;30.642;2023-02-20T15:01:14;19.20;;;10.27;;
48925;SDS011;39838;59.938;30.642;2023-02-20T15:03:46;20.10;;;10.23;;
48925;SDS011;39838;59.938;30.642;2023-02-20T15:06:24;16.75;;;9.45;;
48925;SDS011;39838;59.938;30.642;2023-02-20T15:08:54;20.20;;;10.10;;
48925;SDS011;39838;59.938;30.642;2023-02-20T15:11:23;16.65;;;9.15;;